Time;durP1;ratioP1;P1;durP2;ratioP2;P2;SDS_P1;SDS_P2;PMS_P1;PMS_P2;Temp;Humidity;BMP_temperature;BMP_pressure;BME280_temperature;BME280_humidity;BME280_pressure;Samples;Min_cycle;Max_cycle;Signal;HPM_P1;HPM_P2
2023/08/23 00:00:05;;;;;;;3.50;3.20;;;;;;;;;;5106190;28;20232;-30
2023/08/23 00:02:32;;;;;;;3.78;3.05;;;;;;;;;;5107838;28;20203;-35
2023/08/23 00:05:00;;;;;;;5.82;3.15;;;;;;;;;;5104099;28;20222;-34
2023/08/23 00:07:27;;;;;;;3.53;3.05;;;;;;;;;;5112058;28;20290;-34
2023/08/23 00:09:54;;;;;;;3.40;3.17;;;;;;;;;;5113843;28;20285;-37
2023/08/23 00:12:21;;;;;;;3.88;2.47;;;;;;;;;;5095017;28;20204;-35
2023/08/23 00:14:48;;;;;;;5.38;2.90;;;;;;;;;;5098152;28;20219;-33
2023/08/23 00:17:16;;;;;;;4.05;2.85;;;;;;;;;;5110519;28;20210;-36
2023/08/23 00:19:45;;;;;;;4.35;3.10;;;;;;;;;;5100961;28;20224;-31
2023/08/23 00:22:13;;;;;;;3.70;2.90;;;;;;;;;;5103098;28;20312;-33
2023/08/23 00:24:40;;;;;;;3.40;3.10;;;;;;;;;;5105895;28;20587;-31
2023/08/23 00:27:07;;;;;;;3.30;2.90;;;;;;;;;;5112908;28;20202;-34
2023/08/23 00:29:34;;;;;;;3.60;3.25;;;;;;;;;;5110366;28;20205;-33
2023/08/23 00:32:01;;;;;;;4.43;3.20;;;;;;;;;;5101884;28;20233;-33
2023/08/23 00:34:29;;;;;;;3.25;2.63;;;;;;;;;;5095925;28;20199;-33
2023/08/23 00:36:56;;;;;;;4.15;3.65;;;;;;;;;;5103832;28;20207;-31
2023/08/23 00:39:25;;;;;;;5.93;3.10;;;;;;;;;;5100776;28;20217;-32
2023/08/23 00:41:52;;;;;;;5.03;3.10;;;;;;;;;;5091064;28;20218;-35
2023/08/23 00:44:19;;;;;;;5.65;3.25;;;;;;;;;;5091267;28;20226;-36
2023/08/23 00:46:46;;;;;;;5.20;3.10;;;;;;;;;;5092973;28;20671;-36
2023/08/23 00:49:13;;;;;;;2.85;2.58;;;;;;;;;;5112260;28;20577;-32
2023/08/23 00:51:43;;;;;;;4.97;3.00;;;;;;;;;;5113223;28;20338;-33
2023/08/23 00:54:11;;;;;;;5.03;3.35;;;;;;;;;;5111966;28;20203;-35
2023/08/23 00:56:38;;;;;;;3.10;2.80;;;;;;;;;;5108412;28;20211;-33
2023/08/23 00:59:07;;;;;;;3.15;2.85;;;;;;;;;;5112919;28;20197;-35
2023/08/23 01:01:34;;;;;;;3.75;3.20;;;;;;;;;;5103871;28;20229;-35
2023/08/23 01:04:01;;;;;;;3.83;3.00;;;;;;;;;;5098582;28;20211;-33
2023/08/23 01:06:33;;;;;;;6.45;2.67;;;;;;;;;;5090812;28;20215;-34
2023/08/23 01:09:06;;;;;;;2.80;2.60;;;;;;;;;;5103435;28;20202;-36
2023/08/23 01:11:36;;;;;;;2.97;2.67;;;;;;;;;;5104276;28;20221;-32
2023/08/23 01:14:04;;;;;;;3.38;2.80;;;;;;;;;;5105182;28;20259;-33
2023/08/23 01:16:32;;;;;;;3.47;3.17;;;;;;;;;;5100015;28;20199;-33
2023/08/23 01:19:01;;;;;;;3.60;2.95;;;;;;;;;;5099824;28;20198;-35
2023/08/23 01:21:32;;;;;;;3.75;2.97;;;;;;;;;;5111449;28;20222;-35
2023/08/23 01:24:08;;;;;;;6.78;3.10;;;;;;;;;;5100871;28;20210;-35
2023/08/23 01:26:35;;;;;;;3.22;2.92;;;;;;;;;;5104297;28;20190;-36
2023/08/23 01:29:02;;;;;;;3.83;2.88;;;;;;;;;;5104818;28;20207;-36
2023/08/23 01:31:31;;;;;;;4.75;3.22;;;;;;;;;;5103251;28;20251;-31
2023/08/23 01:34:02;;;;;;;7.90;3.28;;;;;;;;;;5112550;28;20205;-34
2023/08/23 01:36:30;;;;;;;3.08;2.75;;;;;;;;;;5109469;28;20202;-34
2023/08/23 01:38:58;;;;;;;6.15;3.40;;;;;;;;;;5110675;28;20202;-36
2023/08/23 01:41:27;;;;;;;4.10;2.75;;;;;;;;;;5103991;28;20222;-33
2023/08/23 01:44:00;;;;;;;3.00;2.80;;;;;;;;;;5112791;28;20230;-36
2023/08/23 01:46:27;;;;;;;3.15;2.78;;;;;;;;;;5099053;28;20239;-35
2023/08/23 01:48:54;;;;;;;5.00;3.30;;;;;;;;;;5107053;28;20210;-34
2023/08/23 01:51:21;;;;;;;3.47;3.15;;;;;;;;;;5115505;28;20721;-36
2023/08/23 01:53:49;;;;;;;3.05;2.67;;;;;;;;;;5111963;28;20216;-31
2023/08/23 01:56:18;;;;;;;4.13;3.65;;;;;;;;;;5109388;28;20391;-35
2023/08/23 01:58:46;;;;;;;4.78;3.13;;;;;;;;;;5107446;28;20240;-34
2023/08/23 02:01:14;;;;;;;4.97;3.13;;;;;;;;;;5116785;28;20233;-38
2023/08/23 02:03:41;;;;;;;3.25;2.95;;;;;;;;;;5110098;28;20202;-35
2023/08/23 02:06:08;;;;;;;3.50;2.72;;;;;;;;;;5107021;28;20293;-38
2023/08/23 02:08:37;;;;;;;3.28;2.97;;;;;;;;;;5106826;28;20209;-32
2023/08/23 02:11:04;;;;;;;3.13;2.78;;;;;;;;;;5106157;28;20687;-33
2023/08/23 02:13:34;;;;;;;3.28;2.97;;;;;;;;;;5116411;28;20214;-35
2023/08/23 02:16:02;;;;;;;3.35;3.05;;;;;;;;;;5112484;28;20263;-37
2023/08/23 02:18:29;;;;;;;3.15;2.85;;;;;;;;;;5103120;28;20494;-36
2023/08/23 02:20:57;;;;;;;5.90;2.92;;;;;;;;;;5100420;28;20219;-33
2023/08/23 02:23:25;;;;;;;4.63;3.00;;;;;;;;;;5095343;28;20219;-31
2023/08/23 02:25:53;;;;;;;5.20;3.30;;;;;;;;;;5102706;28;20272;-33
2023/08/23 02:28:20;;;;;;;3.05;2.75;;;;;;;;;;5096455;28;20216;-34
2023/08/23 02:30:47;;;;;;;3.20;2.90;;;;;;;;;;5115806;28;20218;-30
2023/08/23 02:33:17;;;;;;;3.25;2.80;;;;;;;;;;5111320;28;20207;-34
2023/08/23 02:35:46;;;;;;;4.10;2.83;;;;;;;;;;5100317;28;20238;-35
2023/08/23 02:38:14;;;;;;;3.78;3.20;;;;;;;;;;5096068;28;20208;-35
2023/08/23 02:40:44;;;;;;;4.45;3.10;;;;;;;;;;5098942;28;20228;-31
2023/08/23 02:43:12;;;;;;;3.08;2.88;;;;;;;;;;5101740;28;20208;-32
2023/08/23 02:45:40;;;;;;;2.80;2.35;;;;;;;;;;5105732;28;20316;-36
2023/08/23 02:48:07;;;;;;;3.15;2.83;;;;;;;;;;5095753;28;20208;-37
2023/08/23 02:50:36;;;;;;;3.65;2.85;;;;;;;;;;5100090;28;20229;-38
2023/08/23 02:53:03;;;;;;;3.20;2.55;;;;;;;;;;5112447;28;20246;-33
2023/08/23 02:55:30;;;;;;;3.33;2.80;;;;;;;;;;5106518;28;20298;-33
2023/08/23 02:57:57;;;;;;;3.30;3.00;;;;;;;;;;5108015;28;20206;-36
2023/08/23 03:00:24;;;;;;;3.33;2.85;;;;;;;;;;5094899;28;20230;-34
2023/08/23 03:02:51;;;;;;;3.40;3.03;;;;;;;;;;5104925;28;20216;-36
2023/08/23 03:05:18;;;;;;;3.92;3.10;;;;;;;;;;5114867;28;20419;-34
2023/08/23 03:07:47;;;;;;;4.32;2.85;;;;;;;;;;5112250;28;20195;-37
2023/08/23 03:10:14;;;;;;;2.80;2.60;;;;;;;;;;5096235;28;20245;-37
2023/08/23 03:12:41;;;;;;;2.40;2.22;;;;;;;;;;5105973;28;20206;-36
2023/08/23 03:15:09;;;;;;;3.35;2.97;;;;;;;;;;5113203;28;20300;-34
2023/08/23 03:17:36;;;;;;;2.97;2.70;;;;;;;;;;5095024;28;20211;-34
2023/08/23 03:20:04;;;;;;;3.55;2.60;;;;;;;;;;5101157;28;20208;-34
2023/08/23 03:22:31;;;;;;;3.10;2.80;;;;;;;;;;5111585;28;20190;-33
2023/08/23 03:24:59;;;;;;;3.92;2.95;;;;;;;;;;5114096;28;20228;-35
2023/08/23 03:27:26;;;;;;;2.83;2.55;;;;;;;;;;5098090;28;20210;-34
2023/08/23 03:29:54;;;;;;;5.22;2.63;;;;;;;;;;5108615;28;20209;-32
2023/08/23 03:32:21;;;;;;;3.22;2.75;;;;;;;;;;5097243;28;20212;-35
2023/08/23 03:34:48;;;;;;;3.00;2.80;;;;;;;;;;5096836;28;20217;-31
2023/08/23 03:37:15;;;;;;;3.63;3.08;;;;;;;;;;5092271;28;20204;-35
2023/08/23 03:39:42;;;;;;;4.90;2.83;;;;;;;;;;5099634;28;20202;-33
2023/08/23 03:42:10;;;;;;;5.53;2.92;;;;;;;;;;5096018;28;20239;-34
2023/08/23 03:44:38;;;;;;;3.80;3.30;;;;;;;;;;5100342;28;20213;-32
2023/08/23 03:47:05;;;;;;;2.85;2.38;;;;;;;;;;5096362;28;20226;-34
2023/08/23 03:49:32;;;;;;;3.33;2.88;;;;;;;;;;5095853;28;20235;-34
2023/08/23 03:51:59;;;;;;;4.90;2.80;;;;;;;;;;5105116;28;20227;-35
2023/08/23 03:54:26;;;;;;;3.30;2.90;;;;;;;;;;5106694;28;20271;-36
2023/08/23 03:56:54;;;;;;;3.95;3.17;;;;;;;;;;5099977;28;20197;-38
2023/08/23 03:59:22;;;;;;;4.15;2.80;;;;;;;;;;5100513;28;20235;-36
2023/08/23 04:01:49;;;;;;;2.80;2.60;;;;;;;;;;5102701;28;20254;-36
2023/08/23 04:04:16;;;;;;;3.70;3.28;;;;;;;;;;5104096;28;20201;-37
2023/08/23 04:06:43;;;;;;;3.88;2.83;;;;;;;;;;5102447;28;20416;-33
2023/08/23 04:09:11;;;;;;;3.30;3.00;;;;;;;;;;5097016;28;20320;-36
2023/08/23 04:11:38;;;;;;;3.08;2.85;;;;;;;;;;5094072;28;20314;-38
2023/08/23 04:14:06;;;;;;;3.08;2.88;;;;;;;;;;5098667;28;20565;-34
2023/08/23 04:16:34;;;;;;;3.92;2.92;;;;;;;;;;5091335;28;20208;-36
2023/08/23 04:19:01;;;;;;;3.95;3.00;;;;;;;;;;5096684;28;20201;-36
2023/08/23 04:21:29;;;;;;;5.03;3.00;;;;;;;;;;5098122;28;20222;-36
2023/08/23 04:23:56;;;;;;;4.47;3.13;;;;;;;;;;5099652;28;20212;-36
2023/08/23 04:26:23;;;;;;;3.42;2.72;;;;;;;;;;5104176;28;20225;-38
2023/08/23 04:28:50;;;;;;;6.88;3.35;;;;;;;;;;5182262;22;20206;-31
2023/08/23 04:31:17;;;;;;;4.93;3.80;;;;;;;;;;5083057;28;20224;-27
2023/08/23 04:33:45;;;;;;;3.30;3.03;;;;;;;;;;5078716;28;20199;-33
2023/08/23 04:36:13;;;;;;;5.28;2.88;;;;;;;;;;5071928;28;20208;-33
2023/08/23 04:38:40;;;;;;;3.58;3.28;;;;;;;;;;5085839;28;20217;-27
2023/08/23 04:41:07;;;;;;;3.40;2.85;;;;;;;;;;5082633;28;20266;-27
2023/08/23 04:43:34;;;;;;;3.95;3.22;;;;;;;;;;5085868;28;20208;-27
2023/08/23 04:46:01;;;;;;;5.13;3.35;;;;;;;;;;5082877;28;20226;-28
2023/08/23 04:48:28;;;;;;;3.70;3.35;;;;;;;;;;5082177;28;20581;-26
2023/08/23 04:50:58;;;;;;;3.08;2.88;;;;;;;;;;5087589;28;20555;-30
2023/08/23 04:53:25;;;;;;;3.67;3.33;;;;;;;;;;5090108;28;20211;-31
2023/08/23 04:55:56;;;;;;;4.80;3.20;;;;;;;;;;5086477;28;20674;-31
2023/08/23 04:58:27;;;;;;;4.97;3.13;;;;;;;;;;5089493;28;20194;-29
2023/08/23 05:00:56;;;;;;;4.72;2.92;;;;;;;;;;5072855;28;20232;-30
2023/08/23 05:03:23;;;;;;;3.47;3.17;;;;;;;;;;5074472;28;20302;-29
2023/08/23 05:05:50;;;;;;;3.50;3.20;;;;;;;;;;5086332;28;20222;-27
2023/08/23 05:08:19;;;;;;;3.35;3.13;;;;;;;;;;5093008;28;20204;-28
2023/08/23 05:10:46;;;;;;;5.18;3.50;;;;;;;;;;5086300;28;20221;-28
2023/08/23 05:13:13;;;;;;;8.68;3.17;;;;;;;;;;5072830;28;20226;-29
2023/08/23 05:15:40;;;;;;;4.22;3.47;;;;;;;;;;5092892;28;20202;-30
2023/08/23 05:18:07;;;;;;;3.75;3.00;;;;;;;;;;5092369;28;20295;-29
2023/08/23 05:20:37;;;;;;;4.85;3.25;;;;;;;;;;5080171;28;20227;-31
2023/08/23 05:23:04;;;;;;;4.95;4.03;;;;;;;;;;5093509;28;20219;-27
2023/08/23 05:25:32;;;;;;;4.15;3.20;;;;;;;;;;5091499;28;20202;-30
2023/08/23 05:27:59;;;;;;;7.85;4.05;;;;;;;;;;5093467;28;20217;-30
2023/08/23 05:30:26;;;;;;;3.47;3.03;;;;;;;;;;5086141;28;20237;-26
2023/08/23 05:32:54;;;;;;;3.53;3.22;;;;;;;;;;5079917;28;20292;-30
2023/08/23 05:35:21;;;;;;;4.90;3.20;;;;;;;;;;5091483;28;20212;-27
2023/08/23 05:37:48;;;;;;;5.72;3.38;;;;;;;;;;5091287;28;20208;-28
2023/08/23 05:40:15;;;;;;;5.47;3.47;;;;;;;;;;5092439;28;20292;-29
2023/08/23 05:42:43;;;;;;;3.80;3.33;;;;;;;;;;5088658;28;20206;-29
2023/08/23 05:45:11;;;;;;;4.32;3.70;;;;;;;;;;5076489;28;20206;-29
2023/08/23 05:47:38;;;;;;;4.95;3.40;;;;;;;;;;5092136;28;20223;-30
2023/08/23 05:50:06;;;;;;;4.35;3.50;;;;;;;;;;5085060;28;20208;-31
2023/08/23 05:52:33;;;;;;;3.78;3.47;;;;;;;;;;5078957;28;20204;-27
2023/08/23 05:55:00;;;;;;;3.85;3.53;;;;;;;;;;5090197;28;20207;-32
2023/08/23 05:57:27;;;;;;;4.65;3.80;;;;;;;;;;5083001;28;20199;-29
2023/08/23 05:59:55;;;;;;;6.15;4.00;;;;;;;;;;5086924;28;20204;-30
2023/08/23 06:02:23;;;;;;;6.85;3.95;;;;;;;;;;5085788;28;20617;-29
2023/08/23 06:04:50;;;;;;;4.22;3.83;;;;;;;;;;5091858;28;20218;-31
2023/08/23 06:07:17;;;;;;;4.95;3.75;;;;;;;;;;5087342;28;20226;-29
2023/08/23 06:09:44;;;;;;;8.02;4.22;;;;;;;;;;5080557;28;20214;-26
2023/08/23 06:12:15;;;;;;;5.25;3.97;;;;;;;;;;5080663;28;20696;-28
2023/08/23 06:14:42;;;;;;;4.70;4.20;;;;;;;;;;5087542;28;20199;-30
2023/08/23 06:17:10;;;;;;;4.93;4.38;;;;;;;;;;5077935;28;20689;-32
2023/08/23 06:19:37;;;;;;;4.10;3.80;;;;;;;;;;5080813;28;20209;-31
2023/08/23 06:22:05;;;;;;;5.10;4.38;;;;;;;;;;5075042;28;20230;-31
2023/08/23 06:24:32;;;;;;;4.45;3.88;;;;;;;;;;5087773;28;20203;-28
2023/08/23 06:26:59;;;;;;;6.50;4.43;;;;;;;;;;5079284;28;20234;-31
2023/08/23 06:29:26;;;;;;;6.53;4.28;;;;;;;;;;5088742;28;20296;-29
2023/08/23 06:31:53;;;;;;;9.00;4.40;;;;;;;;;;5091390;28;20240;-28
2023/08/23 06:34:22;;;;;;;4.35;3.55;;;;;;;;;;5082831;28;20207;-30
2023/08/23 06:36:49;;;;;;;4.57;3.97;;;;;;;;;;5084750;28;20209;-31
2023/08/23 06:39:16;;;;;;;6.53;4.38;;;;;;;;;;5091918;28;20652;-32
2023/08/23 06:41:44;;;;;;;5.75;4.55;;;;;;;;;;5095359;28;20222;-31
2023/08/23 06:44:11;;;;;;;4.80;4.38;;;;;;;;;;5082614;28;20678;-28
2023/08/23 06:46:38;;;;;;;5.20;4.43;;;;;;;;;;5091588;28;20242;-28
2023/08/23 06:49:06;;;;;;;5.82;4.15;;;;;;;;;;5078112;28;20566;-29
2023/08/23 06:51:35;;;;;;;5.22;4.38;;;;;;;;;;5078679;28;20224;-29
2023/08/23 06:54:02;;;;;;;5.40;4.20;;;;;;;;;;5074778;28;20208;-29
2023/08/23 06:56:29;;;;;;;5.00;4.50;;;;;;;;;;5088113;28;20225;-27
2023/08/23 06:58:56;;;;;;;6.25;4.70;;;;;;;;;;5087798;28;20203;-29
2023/08/23 07:01:24;;;;;;;8.52;4.47;;;;;;;;;;5085732;28;20233;-29
2023/08/23 07:03:51;;;;;;;5.05;4.30;;;;;;;;;;5092122;28;20269;-30
2023/08/23 07:06:19;;;;;;;4.88;4.38;;;;;;;;;;5085955;28;20222;-30
2023/08/23 07:08:47;;;;;;;7.47;4.28;;;;;;;;;;5086193;28;20289;-30
2023/08/23 07:11:14;;;;;;;5.18;4.38;;;;;;;;;;5082755;28;20224;-28
2023/08/23 07:13:42;;;;;;;5.57;4.50;;;;;;;;;;5088304;28;20205;-30
2023/08/23 07:16:09;;;;;;;4.78;4.32;;;;;;;;;;5088539;28;20656;-29
2023/08/23 07:18:36;;;;;;;5.03;4.63;;;;;;;;;;5091592;28;20273;-28
2023/08/23 07:21:09;;;;;;;6.03;4.35;;;;;;;;;;5075049;28;20309;-29
2023/08/23 07:23:36;;;;;;;5.63;4.50;;;;;;;;;;5082499;28;20489;-28
2023/08/23 07:26:05;;;;;;;5.70;5.15;;;;;;;;;;5084901;28;20208;-28
2023/08/23 07:28:32;;;;;;;5.00;4.47;;;;;;;;;;5074310;28;20209;-30
2023/08/23 07:30:59;;;;;;;9.60;4.95;;;;;;;;;;5084230;28;20232;-28
2023/08/23 07:33:26;;;;;;;7.43;4.88;;;;;;;;;;5091651;28;20202;-29
2023/08/23 07:35:57;;;;;;;5.20;4.70;;;;;;;;;;5094726;28;20204;-32
2023/08/23 07:38:24;;;;;;;7.07;4.70;;;;;;;;;;5081873;28;20294;-31
2023/08/23 07:40:51;;;;;;;5.80;4.97;;;;;;;;;;5081451;28;20232;-31
2023/08/23 07:43:21;;;;;;;7.80;4.30;;;;;;;;;;5075891;28;20292;-32
2023/08/23 07:45:52;;;;;;;7.85;4.43;;;;;;;;;;5084868;28;20337;-33
2023/08/23 07:48:19;;;;;;;9.38;4.90;;;;;;;;;;5085867;28;20219;-30
2023/08/23 07:50:49;;;;;;;5.85;4.25;;;;;;;;;;5079296;28;20736;-29
2023/08/23 07:53:16;;;;;;;5.80;4.68;;;;;;;;;;5081520;28;20557;-29
2023/08/23 07:55:43;;;;;;;5.35;4.72;;;;;;;;;;5083566;28;20204;-30
2023/08/23 07:58:10;;;;;;;8.27;4.47;;;;;;;;;;5078359;28;20300;-29
2023/08/23 08:00:39;;;;;;;5.15;4.70;;;;;;;;;;5083198;28;20216;-28
2023/08/23 08:03:06;;;;;;;8.43;4.68;;;;;;;;;;5085380;28;20200;-29
2023/08/23 08:05:34;;;;;;;4.85;4.43;;;;;;;;;;5087285;28;20228;-29
2023/08/23 08:08:02;;;;;;;6.43;5.03;;;;;;;;;;5077860;28;20224;-30
2023/08/23 08:10:29;;;;;;;5.40;4.40;;;;;;;;;;5084033;28;20437;-34
2023/08/23 08:12:58;;;;;;;7.32;4.65;;;;;;;;;;5081924;28;20208;-33
2023/08/23 08:15:25;;;;;;;4.95;4.28;;;;;;;;;;5078452;28;20682;-32
2023/08/23 08:17:54;;;;;;;4.45;4.00;;;;;;;;;;5077837;28;20197;-31
2023/08/23 08:20:24;;;;;;;4.88;4.22;;;;;;;;;;5074861;28;20254;-28
2023/08/23 08:22:52;;;;;;;7.55;4.40;;;;;;;;;;5082189;28;20568;-29
2023/08/23 08:25:19;;;;;;;5.03;4.50;;;;;;;;;;5079731;28;20196;-29
2023/08/23 08:27:47;;;;;;;6.85;4.80;;;;;;;;;;5086559;28;20212;-32
2023/08/23 08:30:14;;;;;;;4.63;3.75;;;;;;;;;;5073305;28;20598;-30
2023/08/23 08:32:41;;;;;;;4.70;3.88;;;;;;;;;;5079113;28;20688;-30
2023/08/23 08:35:10;;;;;;;11.93;4.40;;;;;;;;;;5081930;28;20196;-33
2023/08/23 08:37:37;;;;;;;8.20;4.40;;;;;;;;;;5080875;28;20229;-31
2023/08/23 08:40:04;;;;;;;6.47;4.47;;;;;;;;;;5084766;28;20210;-30
2023/08/23 08:42:32;;;;;;;6.78;4.07;;;;;;;;;;5078050;28;20208;-29
2023/08/23 08:44:59;;;;;;;23.55;9.55;;;;;;;;;;5090235;28;20201;-27
2023/08/23 08:47:26;;;;;;;6.28;4.53;;;;;;;;;;5074968;28;20221;-31
2023/08/23 08:49:53;;;;;;;5.20;4.68;;;;;;;;;;5077272;28;20217;-29
2023/08/23 08:52:24;;;;;;;7.93;4.85;;;;;;;;;;5081576;28;20648;-30
2023/08/23 08:54:52;;;;;;;5.80;4.68;;;;;;;;;;5075611;28;20288;-32
2023/08/23 08:57:19;;;;;;;7.50;4.95;;;;;;;;;;5077421;28;20205;-28
2023/08/23 08:59:53;;;;;;;7.55;4.10;;;;;;;;;;5079279;28;20196;-30
2023/08/23 09:02:20;;;;;;;9.60;4.97;;;;;;;;;;5080594;28;20189;-30
2023/08/23 09:04:47;;;;;;;4.53;4.13;;;;;;;;;;5084938;28;20283;-31
2023/08/23 09:07:15;;;;;;;5.93;4.70;;;;;;;;;;5082782;28;20224;-28
2023/08/23 09:09:59;;;;;;;6.10;5.50;;;;;;;;;;5086355;28;20201;-30
2023/08/23 09:12:26;;;;;;;4.75;4.32;;;;;;;;;;5094354;28;20562;-30
2023/08/23 09:14:53;;;;;;;5.80;4.57;;;;;;;;;;5089220;28;20287;-28
2023/08/23 09:17:22;;;;;;;6.47;4.15;;;;;;;;;;5084214;28;20205;-30
2023/08/23 09:19:49;;;;;;;8.52;4.97;;;;;;;;;;5093365;28;20204;-29
2023/08/23 09:22:20;;;;;;;6.80;4.63;;;;;;;;;;5087195;28;20200;-32
2023/08/23 09:25:08;;;;;;;6.20;4.53;;;;;;;;;;5087032;28;20204;-30
2023/08/23 09:27:35;;;;;;;5.28;4.45;;;;;;;;;;5092434;28;20293;-29
2023/08/23 09:30:04;;;;;;;5.28;4.28;;;;;;;;;;5078490;28;20727;-29
2023/08/23 09:32:31;;;;;;;10.15;4.30;;;;;;;;;;5077197;28;20197;-32
2023/08/23 09:34:59;;;;;;;7.97;4.25;;;;;;;;;;5081630;28;20571;-29
2023/08/23 09:37:28;;;;;;;7.18;4.50;;;;;;;;;;5078001;28;20193;-31
2023/08/23 09:39:55;;;;;;;5.88;4.15;;;;;;;;;;5073189;28;20291;-32
2023/08/23 09:42:24;;;;;;;5.95;4.43;;;;;;;;;;5077740;28;20570;-30
2023/08/23 09:44:52;;;;;;;6.00;4.25;;;;;;;;;;5078279;28;20210;-31
2023/08/23 09:47:22;;;;;;;4.53;4.18;;;;;;;;;;5092044;28;20228;-32
2023/08/23 09:49:51;;;;;;;4.40;4.03;;;;;;;;;;5087095;28;20192;-32
2023/08/23 09:52:19;;;;;;;4.60;4.10;;;;;;;;;;5086561;28;20200;-28
2023/08/23 09:54:51;;;;;;;4.85;4.45;;;;;;;;;;5092413;28;20211;-30
2023/08/23 09:57:19;;;;;;;5.70;4.22;;;;;;;;;;5092692;28;20181;-30
2023/08/23 09:59:48;;;;;;;5.32;4.15;;;;;;;;;;5087927;28;20552;-29
2023/08/23 10:02:36;;;;;;;4.97;4.50;;;;;;;;;;5075106;28;20540;-32
2023/08/23 10:05:04;;;;;;;5.22;4.50;;;;;;;;;;5080266;28;20292;-33
2023/08/23 10:07:34;;;;;;;5.57;4.38;;;;;;;;;;5091641;28;20958;-32
2023/08/23 10:10:01;;;;;;;5.65;4.20;;;;;;;;;;5084637;28;20431;-31
2023/08/23 10:12:29;;;;;;;5.90;4.47;;;;;;;;;;5077561;28;20204;-31
2023/08/23 10:14:58;;;;;;;4.75;3.70;;;;;;;;;;5080836;28;20581;-29
2023/08/23 10:17:26;;;;;;;6.53;4.05;;;;;;;;;;5091374;28;20201;-34
2023/08/23 10:19:53;;;;;;;5.53;4.25;;;;;;;;;;5083106;28;20201;-31
2023/08/23 10:22:20;;;;;;;6.32;4.60;;;;;;;;;;5085767;28;20205;-34
2023/08/23 10:24:51;;;;;;;6.95;4.45;;;;;;;;;;5075262;28;20201;-32
2023/08/23 10:27:19;;;;;;;6.30;4.20;;;;;;;;;;5088788;28;20727;-29
2023/08/23 10:29:51;;;;;;;7.20;4.03;;;;;;;;;;5090235;28;20224;-31
2023/08/23 10:32:19;;;;;;;6.60;4.32;;;;;;;;;;5324967;22;20243;-29
2023/08/23 10:34:47;;;;;;;5.90;4.00;;;;;;;;;;5090136;28;20264;-31
2023/08/23 10:37:15;;;;;;;4.47;4.07;;;;;;;;;;5084296;28;20200;-32
2023/08/23 10:39:48;;;;;;;4.55;4.15;;;;;;;;;;5088529;28;20231;-32
2023/08/23 10:42:16;;;;;;;6.60;4.22;;;;;;;;;;5055637;28;20205;-27
2023/08/23 10:44:47;;;;;;;5.03;3.92;;;;;;;;;;5060188;28;20201;-30
2023/08/23 10:47:14;;;;;;;4.57;4.18;;;;;;;;;;5071689;28;20210;-27
2023/08/23 10:49:43;;;;;;;4.50;4.13;;;;;;;;;;5062014;28;20287;-29
2023/08/23 10:52:10;;;;;;;7.80;3.88;;;;;;;;;;5066399;28;20244;-32
2023/08/23 10:54:38;;;;;;;6.93;4.88;;;;;;;;;;5075150;28;20297;-34
2023/08/23 10:57:05;;;;;;;5.43;4.20;;;;;;;;;;5071063;28;20223;-29
2023/08/23 10:59:33;;;;;;;6.53;4.50;;;;;;;;;;5070557;28;20205;-32
2023/08/23 11:02:00;;;;;;;4.75;4.07;;;;;;;;;;5065121;28;20232;-32
2023/08/23 11:04:27;;;;;;;4.88;4.10;;;;;;;;;;5071471;28;20452;-34
2023/08/23 11:06:56;;;;;;;6.50;4.43;;;;;;;;;;5068351;28;20197;-27
2023/08/23 11:09:23;;;;;;;4.18;3.78;;;;;;;;;;5059073;28;20316;-32
2023/08/23 11:11:50;;;;;;;5.93;4.15;;;;;;;;;;5065137;28;20235;-28
2023/08/23 11:14:17;;;;;;;8.40;4.22;;;;;;;;;;5062753;28;20206;-29
2023/08/23 11:16:45;;;;;;;5.35;4.65;;;;;;;;;;5072777;28;20300;-28
2023/08/23 11:19:12;;;;;;;4.78;4.32;;;;;;;;;;5073070;28;20197;-32
2023/08/23 11:21:40;;;;;;;10.85;4.50;;;;;;;;;;5062342;28;20231;-28
2023/08/23 11:24:08;;;;;;;6.80;4.63;;;;;;;;;;5066181;28;20216;-27
2023/08/23 11:26:35;;;;;;;7.13;4.50;;;;;;;;;;5054548;28;20210;-33
2023/08/23 11:29:02;;;;;;;5.53;4.20;;;;;;;;;;5056618;28;20221;-27
2023/08/23 11:31:30;;;;;;;6.60;4.43;;;;;;;;;;5063956;28;20217;-30
2023/08/23 11:33:58;;;;;;;7.22;4.97;;;;;;;;;;5074109;28;20208;-30
2023/08/23 11:36:27;;;;;;;6.72;5.13;;;;;;;;;;5067937;28;20206;-29
2023/08/23 11:38:54;;;;;;;4.88;4.03;;;;;;;;;;5068702;28;20233;-31
2023/08/23 11:41:29;;;;;;;5.82;4.35;;;;;;;;;;5055437;28;20222;-30
2023/08/23 11:43:56;;;;;;;5.80;4.60;;;;;;;;;;5053181;28;20206;-29
2023/08/23 11:46:23;;;;;;;7.82;4.40;;;;;;;;;;5056075;28;20220;-30
2023/08/23 11:48:51;;;;;;;4.80;4.30;;;;;;;;;;5059711;28;20228;-32
2023/08/23 11:51:18;;;;;;;4.95;4.50;;;;;;;;;;5052850;28;20549;-31
2023/08/23 11:53:51;;;;;;;5.75;4.10;;;;;;;;;;5069958;28;20201;-33
2023/08/23 11:56:19;;;;;;;7.47;4.63;;;;;;;;;;5055387;28;20205;-33
2023/08/23 11:58:47;;;;;;;4.53;4.13;;;;;;;;;;5054150;28;20205;-33
2023/08/23 12:01:14;;;;;;;6.05;5.13;;;;;;;;;;5065824;28;20628;-26
2023/08/23 12:03:41;;;;;;;4.75;4.28;;;;;;;;;;5057937;28;20206;-29
2023/08/23 12:06:16;;;;;;;6.72;4.32;;;;;;;;;;5070524;28;20326;-28
2023/08/23 12:08:43;;;;;;;6.38;4.25;;;;;;;;;;5072802;28;20208;-28
2023/08/23 12:11:10;;;;;;;6.93;4.40;;;;;;;;;;5056565;28;20228;-29
2023/08/23 12:13:37;;;;;;;7.18;3.97;;;;;;;;;;5066059;28;20197;-29
2023/08/23 12:16:07;;;;;;;3.92;3.63;;;;;;;;;;5073491;28;20299;-30
2023/08/23 12:18:34;;;;;;;4.43;3.65;;;;;;;;;;5068167;28;20198;-30
2023/08/23 12:21:01;;;;;;;4.25;3.85;;;;;;;;;;5067793;28;20231;-30
2023/08/23 12:23:29;;;;;;;5.15;3.58;;;;;;;;;;5062252;28;20202;-32
2023/08/23 12:25:56;;;;;;;3.92;3.53;;;;;;;;;;5053968;28;20288;-30
2023/08/23 12:28:23;;;;;;;6.40;3.35;;;;;;;;;;5063733;28;20221;-30
2023/08/23 12:30:53;;;;;;;4.45;3.30;;;;;;;;;;5065295;28;20235;-30
2023/08/23 12:33:22;;;;;;;5.07;3.40;;;;;;;;;;5055274;28;20206;-30
2023/08/23 12:35:49;;;;;;;5.85;3.70;;;;;;;;;;5055438;28;20203;-32
2023/08/23 12:38:16;;;;;;;3.47;3.17;;;;;;;;;;5072268;28;20292;-27
2023/08/23 12:40:43;;;;;;;4.03;3.47;;;;;;;;;;5061808;28;20217;-28
2023/08/23 12:43:10;;;;;;;4.53;3.30;;;;;;;;;;5053695;28;20209;-31
2023/08/23 12:45:37;;;;;;;3.60;3.28;;;;;;;;;;5057689;28;20201;-28
2023/08/23 12:48:04;;;;;;;3.97;3.50;;;;;;;;;;5065684;28;20228;-31
2023/08/23 12:50:33;;;;;;;3.40;3.10;;;;;;;;;;5064725;28;20217;-32
2023/08/23 12:53:00;;;;;;;5.05;3.58;;;;;;;;;;5069918;28;20204;-32
2023/08/23 12:55:27;;;;;;;4.60;3.10;;;;;;;;;;5056993;28;20209;-32
2023/08/23 12:57:54;;;;;;;4.20;3.30;;;;;;;;;;5064614;28;20205;-29
2023/08/23 13:00:21;;;;;;;3.97;3.58;;;;;;;;;;5072341;28;20217;-29
2023/08/23 13:02:49;;;;;;;4.95;3.17;;;;;;;;;;5066963;28;20224;-30
2023/08/23 13:05:19;;;;;;;4.05;3.60;;;;;;;;;;5052691;28;20214;-30
2023/08/23 13:07:48;;;;;;;4.10;3.55;;;;;;;;;;5052407;28;20232;-30
2023/08/23 13:10:15;;;;;;;5.30;3.28;;;;;;;;;;5071241;28;20312;-31
2023/08/23 13:12:43;;;;;;;5.63;3.80;;;;;;;;;;5066457;28;20207;-28
2023/08/23 13:15:13;;;;;;;8.20;3.95;;;;;;;;;;5062367;28;20201;-30
2023/08/23 13:17:40;;;;;;;5.07;3.47;;;;;;;;;;5060190;28;20240;-26
2023/08/23 13:20:09;;;;;;;4.80;3.85;;;;;;;;;;5052802;28;20202;-30
2023/08/23 13:22:36;;;;;;;5.90;3.58;;;;;;;;;;5058235;28;20246;-32
2023/08/23 13:25:05;;;;;;;4.10;3.25;;;;;;;;;;5064144;28;20355;-32
2023/08/23 13:27:32;;;;;;;3.65;3.05;;;;;;;;;;5064379;28;20212;-29
2023/08/23 13:29:59;;;;;;;4.47;3.38;;;;;;;;;;5058309;28;20225;-29
2023/08/23 13:32:26;;;;;;;4.32;3.60;;;;;;;;;;5063197;28;20205;-32
2023/08/23 13:34:54;;;;;;;3.90;3.40;;;;;;;;;;5072303;28;20212;-33
2023/08/23 13:37:21;;;;;;;5.75;4.03;;;;;;;;;;5067597;28;20202;-30
2023/08/23 13:39:48;;;;;;;4.97;3.97;;;;;;;;;;5072233;28;20212;-33
2023/08/23 13:42:16;;;;;;;5.32;3.50;;;;;;;;;;5064162;28;20292;-31
2023/08/23 13:44:43;;;;;;;4.50;3.33;;;;;;;;;;5070633;28;20228;-31
2023/08/23 13:47:10;;;;;;;4.38;3.70;;;;;;;;;;5066087;28;20205;-29
2023/08/23 13:49:38;;;;;;;4.43;3.70;;;;;;;;;;5064279;28;20228;-32
2023/08/23 13:52:10;;;;;;;6.88;3.40;;;;;;;;;;5056939;28;20233;-33
2023/08/23 13:54:40;;;;;;;4.70;3.42;;;;;;;;;;5061126;28;20210;-30
2023/08/23 13:57:07;;;;;;;5.55;3.55;;;;;;;;;;5068018;28;20305;-29
2023/08/23 13:59:35;;;;;;;7.18;3.90;;;;;;;;;;5076298;28;20231;-26
2023/08/23 14:02:04;;;;;;;3.78;3.47;;;;;;;;;;5070519;28;20236;-29
2023/08/23 14:04:32;;;;;;;5.43;3.72;;;;;;;;;;5072857;28;20300;-27
2023/08/23 14:07:00;;;;;;;4.10;3.40;;;;;;;;;;5057874;28;20241;-31
2023/08/23 14:09:33;;;;;;;5.90;3.22;;;;;;;;;;5074842;28;20304;-33
2023/08/23 14:12:00;;;;;;;4.60;3.20;;;;;;;;;;5067209;28;20235;-32
2023/08/23 14:14:27;;;;;;;6.40;3.80;;;;;;;;;;5073229;28;20287;-29
2023/08/23 14:16:56;;;;;;;5.78;4.13;;;;;;;;;;5066107;28;20206;-29
2023/08/23 14:19:24;;;;;;;5.18;3.60;;;;;;;;;;5073051;28;20202;-29
2023/08/23 14:21:53;;;;;;;4.80;3.30;;;;;;;;;;5069333;28;20225;-27
2023/08/23 14:24:20;;;;;;;4.70;3.38;;;;;;;;;;5067327;28;20214;-29
2023/08/23 14:26:47;;;;;;;3.90;3.13;;;;;;;;;;5060261;28;20198;-30
2023/08/23 14:29:15;;;;;;;7.97;3.45;;;;;;;;;;5071966;28;20231;-27
2023/08/23 14:31:42;;;;;;;5.85;3.42;;;;;;;;;;5075542;28;20225;-30
2023/08/23 14:34:10;;;;;;;3.95;3.50;;;;;;;;;;5075753;28;20196;-31
2023/08/23 14:36:37;;;;;;;3.95;3.55;;;;;;;;;;5066837;28;20202;-30
2023/08/23 14:39:05;;;;;;;4.07;3.63;;;;;;;;;;5069292;28;20205;-31
2023/08/23 14:41:32;;;;;;;5.18;3.47;;;;;;;;;;5059615;28;20233;-30
2023/08/23 14:43:59;;;;;;;3.28;3.03;;;;;;;;;;5063462;28;20305;-34
2023/08/23 14:46:29;;;;;;;3.60;3.13;;;;;;;;;;5054679;28;20213;-29